createdAt,value
2019-02-02T00:01:40.164Z,98453.61
2019-02-02T00:05:45.177Z,98452.66
2019-02-02T00:09:50.276Z,98442.19
2019-02-02T00:13:55.400Z,98443.31
2019-02-02T00:18:00.409Z,98447.77
2019-02-02T00:22:07.323Z,98436.16
2019-02-02T00:26:12.399Z,98453.05
2019-02-02T00:30:17.456Z,98463.61
2019-02-02T00:34:22.508Z,98469.84
2019-02-02T00:38:27.692Z,98460.11
2019-02-02T00:42:32.789Z,98454.25
2019-02-02T00:46:37.892Z,98462.97
2019-02-02T00:50:42.977Z,98458.91
2019-02-02T00:54:48.137Z,98468.41
2019-02-02T00:58:53.204Z,98468.72
2019-02-02T01:02:58.583Z,98490.23
2019-02-02T01:07:05.030Z,98487.64
2019-02-02T01:11:10.077Z,98483.20
2019-02-02T01:15:16.093Z,98480.94
2019-02-02T01:19:21.185Z,98486.00
2019-02-02T01:23:26.228Z,98502.48
2019-02-02T01:27:31.385Z,98493.39
2019-02-02T01:31:36.480Z,98482.84
2019-02-02T01:35:41.585Z,98491.19
2019-02-02T01:39:46.722Z,98502.22
2019-02-02T01:43:51.898Z,98495.34
2019-02-02T01:47:57.250Z,98496.73
2019-02-02T01:52:02.375Z,98499.16
2019-02-02T01:56:09.317Z,98505.30
2019-02-02T02:00:17.462Z,98494.06
2019-02-02T02:04:22.484Z,98501.28
2019-02-02T02:08:27.599Z,98506.38
2019-02-02T02:12:32.735Z,98497.96
2019-02-02T02:16:38.093Z,98502.23
2019-02-02T02:20:44.176Z,98511.66
2019-02-02T02:24:49.281Z,98497.67
2019-02-02T02:28:54.359Z,98492.53
2019-02-02T02:32:59.491Z,98492.09
2019-02-02T02:37:04.631Z,98494.84
2019-02-02T02:41:10.098Z,98493.69
2019-02-02T02:45:15.315Z,98512.08
2019-02-02T02:49:20.311Z,98517.47
2019-02-02T02:53:25.265Z,98523.52
2019-02-02T02:57:30.342Z,98521.84
2019-02-02T03:01:35.440Z,98520.67
2019-02-02T03:05:40.583Z,98519.30
2019-02-02T03:09:45.630Z,98518.89
2019-02-02T03:13:50.722Z,98509.17
2019-02-02T03:17:55.756Z,98502.09
2019-02-02T03:22:00.765Z,98505.81
2019-02-02T03:26:05.971Z,98508.87
2019-02-02T03:30:15.890Z,98513.54
2019-02-02T03:34:20.906Z,98513.55
2019-02-02T03:38:26.137Z,98523.94
2019-02-02T03:42:31.221Z,98529.88
2019-02-02T03:46:36.266Z,98535.02
2019-02-02T03:50:41.280Z,98536.69
2019-02-02T03:54:46.305Z,98545.05
2019-02-02T03:58:51.428Z,98551.52
2019-02-02T04:02:56.667Z,98557.05
2019-02-02T04:07:01.751Z,98562.69
2019-02-02T04:11:06.857Z,98568.89
2019-02-02T04:15:12.310Z,98566.27
2019-02-02T04:19:17.622Z,98571.42
2019-02-02T04:23:22.707Z,98576.91
2019-02-02T04:27:27.756Z,98572.34
2019-02-02T04:31:32.841Z,98576.16
2019-02-02T04:35:37.996Z,98591.48
2019-02-02T04:39:43.105Z,98582.73
2019-02-02T04:43:48.272Z,98586.70
2019-02-02T04:47:53.306Z,98592.42
2019-02-02T04:51:58.444Z,98587.16
2019-02-02T04:56:03.517Z,98576.70
2019-02-02T05:00:14.519Z,98570.65
2019-02-02T05:04:19.674Z,98570.19
2019-02-02T05:08:24.792Z,98572.99
2019-02-02T05:12:30.785Z,98575.59
2019-02-02T05:16:35.806Z,98567.13
2019-02-02T05:20:40.919Z,98575.88
2019-02-02T05:24:45.996Z,98584.25
2019-02-02T05:28:51.089Z,98595.01
2019-02-02T05:32:56.135Z,98589.27
2019-02-02T05:37:01.249Z,98594.56
2019-02-02T05:41:06.356Z,98599.20
2019-02-02T05:45:12.475Z,98599.20
2019-02-02T05:49:17.687Z,98594.48
2019-02-02T05:53:22.866Z,98601.38
2019-02-02T05:57:28.191Z,98611.31
2019-02-02T06:01:33.294Z,98619.96
2019-02-02T06:05:38.440Z,98623.10
2019-02-02T06:09:43.826Z,98626.12
2019-02-02T06:13:48.857Z,98633.58
2019-02-02T06:17:53.938Z,98633.45
2019-02-02T06:21:59.314Z,98638.11
2019-02-02T06:26:04.573Z,98642.33
2019-02-02T06:30:12.859Z,98641.92
2019-02-02T06:34:17.885Z,98650.47
2019-02-02T06:38:22.990Z,98656.88
2019-02-02T06:42:28.872Z,98660.13
2019-02-02T06:46:43.297Z,98668.55
2019-02-02T06:50:40.758Z,98657.86
2019-02-02T06:54:45.824Z,98649.77
2019-02-02T06:58:52.502Z,98664.44
2019-02-02T07:02:58.529Z,98666.18
2019-02-02T07:07:03.606Z,98673.77
2019-02-02T07:11:08.757Z,98674.64
2019-02-02T07:15:14.681Z,98683.73
2019-02-02T07:19:19.714Z,98689.63
2019-02-02T07:23:24.667Z,98696.58
2019-02-02T07:27:29.620Z,98702.78
2019-02-02T07:31:34.748Z,98716.06
2019-02-02T07:35:39.869Z,98716.06
2019-02-02T07:39:45.892Z,98723.98
2019-02-02T07:43:50.854Z,98731.76
2019-02-02T07:47:55.884Z,98743.84
2019-02-02T07:52:00.761Z,98741.10
2019-02-02T07:56:06.201Z,98766.89
2019-02-02T08:00:40.796Z,98774.10
2019-02-02T08:04:39.912Z,98787.06
2019-02-02T08:08:44.946Z,98791.42
2019-02-02T08:12:50.274Z,98787.55
2019-02-02T08:16:55.406Z,98792.89
2019-02-02T08:21:00.544Z,98796.02
2019-02-02T08:25:06.432Z,98798.84
2019-02-02T08:29:11.415Z,98804.87
2019-02-02T08:33:16.478Z,98810.15
2019-02-02T08:37:21.590Z,98819.02
2019-02-02T08:41:26.628Z,98828.33
2019-02-02T08:45:31.766Z,98833.25
2019-02-02T08:49:36.884Z,98848.73
2019-02-02T08:53:41.931Z,98843.90
2019-02-02T08:57:47.116Z,98851.17
2019-02-02T09:01:52.254Z,98855.27
2019-02-02T09:05:58.070Z,98864.95
2019-02-02T09:10:03.425Z,98864.87
2019-02-02T09:14:08.425Z,98867.91
2019-02-02T09:18:13.484Z,98874.25
2019-02-02T09:22:18.507Z,98880.37
2019-02-02T09:26:23.652Z,98881.13
2019-02-02T09:30:30.987Z,98889.08
2019-02-02T09:34:36.168Z,98890.16
2019-02-02T09:38:41.261Z,98898.48
2019-02-02T09:42:46.458Z,98901.31
2019-02-02T09:46:51.606Z,98906.45
2019-02-02T09:50:56.913Z,98906.30
2019-02-02T09:55:02.079Z,98909.28
2019-02-02T09:59:09.714Z,98923.41
2019-02-02T10:03:13.955Z,98928.54
2019-02-02T10:07:19.339Z,98938.03
2019-02-02T10:11:25.383Z,98949.25
2019-02-02T10:15:30.541Z,98946.96
2019-02-02T10:19:35.686Z,98952.33
2019-02-02T10:23:40.789Z,98953.34
2019-02-02T10:27:45.964Z,98952.79
2019-02-02T10:31:51.417Z,98958.98
2019-02-02T10:35:56.588Z,98954.17
2019-02-02T10:40:01.684Z,98959.11
2019-02-02T10:44:06.839Z,98966.23
2019-02-02T10:48:11.928Z,98977.28
2019-02-02T10:52:17.145Z,98966.75
2019-02-02T10:56:23.243Z,98974.66
2019-02-02T11:00:33.116Z,98984.27
2019-02-02T11:04:38.209Z,98986.70
2019-02-02T11:08:43.461Z,98991.62
2019-02-02T11:12:48.861Z,98994.35
2019-02-02T11:16:54.007Z,98994.73
2019-02-02T11:20:59.133Z,98999.52
2019-02-02T11:25:04.833Z,99007.50
2019-02-02T11:29:09.900Z,99019.00
2019-02-02T11:33:14.993Z,99023.70
2019-02-02T11:37:20.442Z,99027.10
2019-02-02T11:41:25.669Z,99030.36
2019-02-02T11:45:30.761Z,99037.61
2019-02-02T11:49:35.818Z,99046.05
2019-02-02T11:53:41.560Z,99056.03
2019-02-02T11:57:49.755Z,99067.53
2019-02-02T12:01:53.700Z,99071.48
2019-02-02T12:06:00.448Z,99076.60
2019-02-02T12:10:06.284Z,99083.42
2019-02-02T12:14:11.400Z,99076.84
2019-02-02T12:18:16.452Z,99082.42
2019-02-02T12:22:21.470Z,99086.01
2019-02-02T12:26:26.654Z,99090.81
2019-02-02T12:30:33.542Z,99103.66
2019-02-02T12:34:38.623Z,99105.78
2019-02-02T12:38:43.799Z,99105.56
2019-02-02T12:42:48.975Z,99113.03
2019-02-02T12:46:54.117Z,99129.98
2019-02-02T12:50:59.430Z,99126.61
2019-02-02T12:55:05.599Z,99144.05
2019-02-02T12:59:10.578Z,99157.29
2019-02-02T13:03:15.970Z,99165.22
2019-02-02T13:07:21.200Z,99169.36
2019-02-02T13:11:26.187Z,99176.73
2019-02-02T13:15:31.208Z,99180.94
2019-02-02T13:19:36.254Z,99183.16
2019-02-02T13:23:41.336Z,99190.14
2019-02-02T13:27:46.432Z,99180.21
2019-02-02T13:31:51.505Z,99181.64
2019-02-02T13:35:56.564Z,99185.40
2019-02-02T13:40:03.691Z,99192.23
2019-02-02T13:44:08.437Z,99195.73
2019-02-02T13:48:13.520Z,99198.20
2019-02-02T13:52:18.579Z,99211.32
2019-02-02T13:56:23.666Z,99213.33
2019-02-02T14:00:30.154Z,99231.23
2019-02-02T14:04:35.255Z,99235.22
2019-02-02T14:08:40.380Z,99235.22
2019-02-02T14:12:45.444Z,99245.98
2019-02-02T14:16:50.582Z,99248.44
2019-02-02T14:20:55.615Z,99259.11
2019-02-02T14:25:00.636Z,99268.42
2019-02-02T14:29:05.833Z,99269.27
2019-02-02T14:33:14.200Z,99285.37
2019-02-02T14:37:18.068Z,99286.89
2019-02-02T14:41:23.165Z,99292.64
2019-02-02T14:45:28.229Z,99304.36
2019-02-02T14:49:33.494Z,99304.69
2019-02-02T14:53:38.489Z,99327.49
2019-02-02T14:57:43.610Z,99331.52
2019-02-02T15:01:48.604Z,99349.69
2019-02-02T15:05:53.753Z,99350.12
2019-02-02T15:09:58.762Z,99358.20
2019-02-02T15:14:03.926Z,99363.45
2019-02-02T15:18:09.225Z,99372.48
2019-02-02T15:22:14.269Z,99371.19
2019-02-02T15:26:19.594Z,99388.88
2019-02-02T15:30:25.858Z,99389.60
2019-02-02T15:34:30.949Z,99392.77
2019-02-02T15:38:36.185Z,99407.77
2019-02-02T15:42:41.423Z,99419.52
2019-02-02T15:46:49.154Z,99416.47
2019-02-02T15:50:53.313Z,99430.89
2019-02-02T15:54:58.509Z,99441.41
2019-02-02T15:59:03.704Z,99444.00
2019-02-02T16:03:08.776Z,99449.30
2019-02-02T16:07:14.943Z,99456.47
2019-02-02T16:11:20.088Z,99472.12
2019-02-02T16:15:25.203Z,99474.42
2019-02-02T16:19:30.195Z,99485.75
2019-02-02T16:23:35.290Z,99488.41
2019-02-02T16:27:40.409Z,99497.37
2019-02-02T16:31:45.498Z,99510.80
2019-02-02T16:35:50.709Z,99524.22
2019-02-02T16:39:55.877Z,99528.20
2019-02-02T16:44:00.955Z,99540.64
2019-02-02T16:48:06.725Z,99550.11
2019-02-02T16:52:11.939Z,99568.39
2019-02-02T16:56:17.379Z,99581.54
2019-02-02T17:00:27.479Z,99590.84
2019-02-02T17:04:32.861Z,99586.95
2019-02-02T17:08:37.993Z,99597.00
2019-02-02T17:12:43.157Z,99600.55
2019-02-02T17:16:48.250Z,99601.80
2019-02-02T17:20:53.356Z,99617.65
2019-02-02T17:24:58.798Z,99629.36
2019-02-02T17:29:03.866Z,99648.95
2019-02-02T17:33:11.182Z,99662.48
2019-02-02T17:37:16.321Z,99658.64
2019-02-02T17:41:21.437Z,99678.22
2019-02-02T17:45:26.693Z,99679.86
2019-02-02T17:49:32.701Z,99688.67
2019-02-02T17:53:39.781Z,99696.17
2019-02-02T17:57:44.953Z,99711.58
2019-02-02T18:01:49.952Z,99715.23
2019-02-02T18:05:55.099Z,99732.80
2019-02-02T18:10:00.258Z,99740.52
2019-02-02T18:14:05.368Z,99739.88
2019-02-02T18:18:10.699Z,99746.56
2019-02-02T18:22:16.175Z,99757.59
2019-02-02T18:26:21.737Z,99761.11
2019-02-02T18:30:27.009Z,99762.98
2019-02-02T18:34:32.385Z,99773.92
2019-02-02T18:38:37.565Z,99796.55
2019-02-02T18:42:42.813Z,99806.70
2019-02-02T18:46:48.314Z,99820.93
2019-02-02T18:50:53.425Z,99819.78
2019-02-02T18:54:58.626Z,99831.55
2019-02-02T18:59:03.707Z,99831.69
2019-02-02T19:03:09.080Z,99849.43
2019-02-02T19:07:14.449Z,99849.06
2019-02-02T19:11:20.635Z,99867.28
2019-02-02T19:15:26.652Z,99872.17
2019-02-02T19:19:31.772Z,99878.62
2019-02-02T19:23:36.835Z,99876.77
2019-02-02T19:27:45.215Z,99884.91
2019-02-02T19:31:50.930Z,99891.09
2019-02-02T19:35:55.996Z,99910.11
2019-02-02T19:40:01.165Z,99919.86
2019-02-02T19:44:06.317Z,99924.89
2019-02-02T19:48:11.457Z,99920.31
2019-02-02T19:52:16.700Z,99932.53
2019-02-02T19:56:21.709Z,99934.09
2019-02-02T20:00:29.025Z,99937.98
2019-02-02T20:04:34.141Z,99964.80
2019-02-02T20:08:39.278Z,99977.83
2019-02-02T20:12:44.726Z,99976.93
2019-02-02T20:16:53.539Z,99989.05
2019-02-02T20:20:58.574Z,100003.09
2019-02-02T20:25:05.553Z,100015.02
2019-02-02T20:29:10.619Z,100022.22
2019-02-02T20:33:15.727Z,100027.36
2019-02-02T20:37:20.790Z,100043.25
2019-02-02T20:41:25.985Z,100052.67
2019-02-02T20:45:33.032Z,100052.67
2019-02-02T20:49:37.980Z,100060.06
2019-02-02T20:53:43.372Z,100060.91
2019-02-02T20:57:48.479Z,100075.23
2019-02-02T21:01:53.635Z,100072.86
2019-02-02T21:05:58.759Z,100094.27
2019-02-02T21:10:04.395Z,100102.75
2019-02-02T21:14:09.609Z,100105.75
2019-02-02T21:18:14.808Z,100113.24
2019-02-02T21:22:19.977Z,100128.46
2019-02-02T21:26:25.412Z,100141.21
2019-02-02T21:30:36.023Z,100145.25
2019-02-02T21:34:41.621Z,100148.78
2019-02-02T21:38:48.005Z,100164.50
2019-02-02T21:42:53.086Z,100166.20
2019-02-02T21:46:58.121Z,100177.61
2019-02-02T21:51:03.180Z,100185.99
2019-02-02T21:55:10.160Z,100193.38
2019-02-02T21:59:15.327Z,100198.48
2019-02-02T22:03:20.441Z,100209.63
2019-02-02T22:07:25.652Z,100224.96
2019-02-02T22:11:30.746Z,100236.09
2019-02-02T22:15:35.902Z,100243.27
2019-02-02T22:19:41.072Z,100249.19
2019-02-02T22:23:46.360Z,100262.53
2019-02-02T22:27:51.538Z,100259.80
2019-02-02T22:31:56.579Z,100265.27
2019-02-02T22:36:01.671Z,100274.13
2019-02-02T22:40:08.642Z,100286.78
2019-02-02T22:44:13.700Z,100296.73
2019-02-02T22:48:18.888Z,100306.77
2019-02-02T22:52:23.980Z,100321.81
2019-02-02T22:56:29.036Z,100337.48
2019-02-02T23:01:18.868Z,100336.98
2019-02-02T23:05:49.504Z,100339.59
2019-02-02T23:10:37.495Z,100333.83
2019-02-02T23:15:08.884Z,100336.30
2019-02-02T23:19:14.020Z,100343.20
2019-02-02T23:23:19.196Z,100350.06
2019-02-02T23:27:24.132Z,100368.80
2019-02-02T23:31:30.162Z,100368.77
2019-02-02T23:35:35.264Z,100380.31
2019-02-02T23:39:40.336Z,100385.13
2019-02-02T23:43:45.442Z,100389.59
2019-02-02T23:47:50.863Z,100383.66
2019-02-02T23:51:56.045Z,100393.63
2019-02-02T23:56:01.047Z,100397.52
